Terminal Aerodrome Forecast
Issued by NWS

Current Version | Previous Version | Text Only | Print | Product List | Glossary On
Versions: 1 2 3 4 5 6 7 8 9 10 11 12 13 14 15 16 17 18 19 20 21 22 23 24 25 26
000
FTUS43 KDVN 251730
TAFCID
TAF
KCID 251730Z 2518/2618 23015G23KT P6SM SCT025 BKN040
      TEMPO 2518/2519 BKN025
     FM260000 19012KT P6SM BKN250
     FM260400 19008KT P6SM BKN050 PROB30 2605/2610 3SM -TSRA BR
      BKN025CB
     FM261500 18009KT P6SM BKN100=

USA.gov is the U.S. government's official web portal to all federal, state and local government web resources and services.